• Join FlightAware (Why Join?)
  • Login
  • US Flag 
09:06PM EST


 

Airport Tracker/Info


-or-


 

Live Flight TrackerFlight Track Log ✈ ASQ5740 ✈ 26-Apr-2013 ✈ KIAD - KBTV

Flight Track Log - Related Links

Times and Time Zones

All times are in EDT time to prevent confusion due to time zone crossing. See the ASQ5740 flight status page for this flight to view local times or setup timezone preferences in your user account.

Time Position Orientation Groundspeed Altitude Reporting Facility
EDT Latitude Longitude Course Direction KTS MPH feet Rate Location/Type
12:36PM 39.0000 -77.4500 90° East 224 258 2,900  Level Potomac TRACON
12:37PM 39.0833 -77.4500 360° North 262 302 6,800 3,300 Climbing Potomac TRACON
12:38PM 39.0167 -76.9784 90° East  Level FlightAware Approximate
12:38PM 39.1333 -77.3833 46° Northeast 287 330 9,500  Level Potomac TRACON
12:39PM 39.0390 -76.8606 72° East  Level FlightAware Approximate
12:40PM 39.0523 -76.7408 72° East  Level FlightAware Approximate
12:40PM 39.1183 -77.1139 94° East 346 398 12,800  Level Washington Center
12:41PM 39.0833 -76.6257 90° East  Level FlightAware Approximate
12:41PM 39.1242 -76.9750 87° East 372 428 14,100  Level Washington Center
12:42PM 39.1258 -76.8303 89° East 386 444 15,300 1,320 Climbing Washington Center
12:43PM 39.1356 -76.6833 85° East 398 458 16,900 1,320 Climbing Washington Center
12:44PM 39.1389 -76.5389 88° East 404 465 18,000 1,260 Climbing Washington Center
12:45PM 39.1419 -76.3917 88° East 404 465 19,400 1,380 Climbing Washington Center
12:46PM 39.1450 -76.2419 88° East 409 471 20,900 1,320 Climbing Washington Center
12:47PM 39.1686 -76.0894 79° East 420 483 22,100 1,020 Climbing Washington Center
12:48PM 39.1858 -75.9344 82° East 428 493 23,000 420 Climbing Washington Center
12:49PM 39.2508 -75.8061 57° Northeast 417 480 23,000 60 Level Washington Center
12:50PM 39.3425 -75.6908 44° Northeast 427 491 23,200 900 Climbing Washington Center
12:51PM 39.4303 -75.5756 45° Northeast 432 497 24,800 1,380 Climbing Washington Center
12:52PM 39.5133 -75.4678 45° Northeast 432 497 26,000 780 Climbing Washington Center
12:54PM 39.6561 -75.2819 45° Northeast 445 512 27,000 360 Climbing New York Center
12:55PM 39.7400 -75.1633 47° Northeast 440 506 27,000  Level New York Center
12:56PM 39.8192 -75.0467 49° Northeast 435 501 27,000  Level New York Center
12:57PM 39.9006 -74.9325 47° Northeast 430 495 27,000  Level New York Center
12:58PM 39.9839 -74.8128 48° Northeast 430 495 27,000  Level New York Center
12:59PM 40.0692 -74.6903 48° Northeast 425 489 27,000  Level New York Center
01:00PM 40.1481 -74.5753 48° Northeast 425 489 27,000  Level New York Center
01:01PM 40.2308 -74.4656 45° Northeast 425 489 27,000  Level New York Center
01:02PM 40.3269 -74.3864 32° Northeast 409 471 27,000  Level New York Center
01:03PM 40.4272 -74.3100 30° Northeast 409 471 27,000  Level New York Center
01:04PM 40.5256 -74.2275 33° Northeast 409 471 27,000  Level New York Center
01:05PM 40.6150 -74.1583 30° Northeast 415 478 27,000  Level New York Center
01:07PM 40.7931 -74.0164 31° Northeast 421 484 27,000  Level Boston Center
01:08PM 40.8939 -73.9447 28° Northeast 414 476 27,000  Level Boston Center
01:09PM 41.0044 -73.9364 North 387 445 27,000  Level Boston Center
01:10PM 41.1256 -73.9253 North 387 445 27,000  Level Boston Center
01:11PM 41.2383 -73.9058 North 393 452 27,000  Level Boston Center
01:12PM 41.3492 -73.8808 10° North 398 458 27,000 -660 Level Boston Center
01:13PM 41.4642 -73.8528 10° North 403 464 25,700 -1,020 Descending Boston Center
01:14PM 41.5853 -73.8278 North 421 484 25,000 -360 Descending Boston Center
01:15PM 41.7044 -73.7997 10° North 431 496 25,000  Level Boston Center
01:16PM 41.8025 -73.7825 North 412 474 25,000  Level Boston Center
01:17PM 41.9156 -73.7569 10° North 412 474 25,000  Level Boston Center
01:18PM 42.0389 -73.7286 10° North 407 468 25,000  Level Boston Center
01:19PM 42.1517 -73.6975 12° North 407 468 25,000  Level Boston Center
01:20PM 42.2644 -73.6689 11° North 413 475 25,000  Level Boston Center
01:21PM 42.3753 -73.6514 North 407 468 25,000  Level Boston Center
01:22PM 42.4817 -73.6281 North 396 456 25,000  Level Boston Center
01:23PM 42.5903 -73.6047 North 391 450 25,000  Level Boston Center
01:25PM 42.7992 -73.5550 10° North 386 444 25,000  Level Boston Center
01:26PM 42.8994 -73.5314 10° North 386 444 25,000 -540 Level Boston Center
01:27PM 43.0081 -73.5019 11° North 380 437 24,000 -540 Descending Boston Center
01:28PM 43.1167 -73.4753 10° North 385 443 24,000  Level Boston Center
01:29PM 43.2150 -73.4514 10° North 391 450 24,000  Level Boston Center
01:30PM 43.3214 -73.4275 North 391 450 24,000  Level Boston Center
01:31PM 43.4258 -73.4006 11° North 391 450 24,000 -960 Level Boston Center
01:32PM 43.5386 -73.3767 North 391 450 22,100 -1,980 Descending Boston Center
01:33PM 43.6514 -73.3353 15° North 401 461 20,100 -2,100 Descending Boston Center
01:34PM 43.7603 -73.2681 24° Northeast 401 461 17,900 -1,800 Descending Boston Center
01:35PM 43.8503 -73.2144 23° Northeast 365 420 16,500 -1,800 Descending Boston Center
01:36PM 43.9319 -73.1667 23° Northeast 332 382 14,400 -2,520 Descending Boston Center
01:37PM 44.0133 -73.1444 11° North 302 348 11,500 -3,000 Descending Boston Center
01:38PM 44.0925 -73.1281 North 295 339 8,400 -2,760 Descending Boston Center
01:39PM 44.1636 -73.1144 North 295 339 6,000 -2,100 Descending Boston Center
01:40PM 44.2364 -73.1008 North 273 314 4,300 -1,020 Descending Boston Center
01:41PM 44.2992 -73.0897 North 241 277 4,000 -360 Descending Boston Center
01:42PM 44.3533 -73.0672 17° North 207 238 3,600 -600 Descending Boston Center
01:43PM 44.4014 -73.0472 17° North 181 208 2,800 -840 Descending Boston Center